sensor_id;sensor_type;location;lat;lon;timestamp;temperature;humidity
75782;DHT22;64400;44.762;37.698;2023-09-07T00:02:15;25.63;62.36
75782;DHT22;64400;44.762;37.698;2023-09-07T00:04:54;25.61;62.43
75782;DHT22;64400;44.762;37.698;2023-09-07T00:07:24;25.61;62.42
75782;DHT22;64400;44.762;37.698;2023-09-07T00:09:53;25.61;62.43
75782;DHT22;64400;44.762;37.698;2023-09-07T00:12:24;25.59;62.47
75782;DHT22;64400;44.762;37.698;2023-09-07T00:14:54;25.59;62.52
75782;DHT22;64400;44.762;37.698;2023-09-07T00:17:25;25.57;62.51
75782;DHT22;64400;44.762;37.698;2023-09-07T00:19:54;25.57;62.56
75782;DHT22;64400;44.762;37.698;2023-09-07T00:22:27;25.56;62.60
75782;DHT22;64400;44.762;37.698;2023-09-07T00:24:56;25.56;62.63
75782;DHT22;64400;44.762;37.698;2023-09-07T00:27:26;25.52;62.63
75782;DHT22;64400;44.762;37.698;2023-09-07T00:29:55;25.52;62.60
75782;DHT22;64400;44.762;37.698;2023-09-07T00:32:25;25.52;62.67
75782;DHT22;64400;44.762;37.698;2023-09-07T00:34:55;25.50;62.77
75782;DHT22;64400;44.762;37.698;2023-09-07T00:37:24;25.51;62.75
75782;DHT22;64400;44.762;37.698;2023-09-07T00:39:53;25.49;62.86
75782;DHT22;64400;44.762;37.698;2023-09-07T00:42:22;25.47;62.82
75782;DHT22;64400;44.762;37.698;2023-09-07T00:44:51;25.46;62.97
75782;DHT22;64400;44.762;37.698;2023-09-07T00:47:21;25.46;62.89
75782;DHT22;64400;44.762;37.698;2023-09-07T00:49:51;25.43;62.90
75782;DHT22;64400;44.762;37.698;2023-09-07T00:52:21;25.44;62.92
75782;DHT22;64400;44.762;37.698;2023-09-07T00:54:51;25.42;62.98
75782;DHT22;64400;44.762;37.698;2023-09-07T00:57:21;25.42;63.02
75782;DHT22;64400;44.762;37.698;2023-09-07T00:59:50;25.40;63.06
75782;DHT22;64400;44.762;37.698;2023-09-07T01:02:20;25.40;63.08
75782;DHT22;64400;44.762;37.698;2023-09-07T01:04:51;25.37;62.99
75782;DHT22;64400;44.762;37.698;2023-09-07T01:07:24;25.37;63.11
75782;DHT22;64400;44.762;37.698;2023-09-07T01:09:56;25.35;63.13
75782;DHT22;64400;44.762;37.698;2023-09-07T01:12:29;25.35;63.18
75782;DHT22;64400;44.762;37.698;2023-09-07T01:14:59;25.33;63.18
75782;DHT22;64400;44.762;37.698;2023-09-07T01:17:30;25.33;63.18
75782;DHT22;64400;44.762;37.698;2023-09-07T01:20:04;25.31;63.23
75782;DHT22;64400;44.762;37.698;2023-09-07T01:22:39;25.30;63.19
75782;DHT22;64400;44.762;37.698;2023-09-07T01:25:11;25.30;63.27
75782;DHT22;64400;44.762;37.698;2023-09-07T01:27:41;25.28;63.31
75782;DHT22;64400;44.762;37.698;2023-09-07T01:30:10;25.27;63.27
75782;DHT22;64400;44.762;37.698;2023-09-07T01:32:41;25.27;63.30
75782;DHT22;64400;44.762;37.698;2023-09-07T01:35:11;25.25;63.27
75782;DHT22;64400;44.762;37.698;2023-09-07T01:37:42;25.23;63.33
75782;DHT22;64400;44.762;37.698;2023-09-07T01:40:13;25.22;63.27
75782;DHT22;64400;44.762;37.698;2023-09-07T01:42:42;25.22;63.31
75782;DHT22;64400;44.762;37.698;2023-09-07T01:45:10;25.20;63.31
75782;DHT22;64400;44.762;37.698;2023-09-07T01:47:39;25.20;63.37
75782;DHT22;64400;44.762;37.698;2023-09-07T01:50:09;25.18;63.45
75782;DHT22;64400;44.762;37.698;2023-09-07T01:52:38;25.17;63.36
75782;DHT22;64400;44.762;37.698;2023-09-07T01:55:07;25.17;63.43
75782;DHT22;64400;44.762;37.698;2023-09-07T01:57:37;25.16;63.45
75782;DHT22;64400;44.762;37.698;2023-09-07T02:00:07;25.16;63.40
75782;DHT22;64400;44.762;37.698;2023-09-07T02:02:41;25.15;63.40
75782;DHT22;64400;44.762;37.698;2023-09-07T02:05:10;25.12;63.40
75782;DHT22;64400;44.762;37.698;2023-09-07T02:07:39;25.13;63.39
75782;DHT22;64400;44.762;37.698;2023-09-07T02:10:09;25.12;63.42
75782;DHT22;64400;44.762;37.698;2023-09-07T02:12:39;25.12;63.47
75782;DHT22;64400;44.762;37.698;2023-09-07T02:15:10;25.08;63.44
75782;DHT22;64400;44.762;37.698;2023-09-07T02:17:39;25.09;63.44
75782;DHT22;64400;44.762;37.698;2023-09-07T02:20:08;25.07;63.44
75782;DHT22;64400;44.762;37.698;2023-09-07T02:22:40;25.06;63.46
75782;DHT22;64400;44.762;37.698;2023-09-07T02:25:10;25.05;63.41
75782;DHT22;64400;44.762;37.698;2023-09-07T02:27:39;25.05;63.44
75782;DHT22;64400;44.762;37.698;2023-09-07T02:30:09;25.03;63.42
75782;DHT22;64400;44.762;37.698;2023-09-07T02:32:42;25.03;63.58
75782;DHT22;64400;44.762;37.698;2023-09-07T02:35:11;25.01;63.53
75782;DHT22;64400;44.762;37.698;2023-09-07T02:37:41;25.00;63.52
75782;DHT22;64400;44.762;37.698;2023-09-07T02:40:11;25.00;63.51
75782;DHT22;64400;44.762;37.698;2023-09-07T02:42:42;25.00;63.50
75782;DHT22;64400;44.762;37.698;2023-09-07T02:45:14;24.98;63.47
75782;DHT22;64400;44.762;37.698;2023-09-07T02:47:45;24.98;63.44
75782;DHT22;64400;44.762;37.698;2023-09-07T02:50:16;24.95;63.50
75782;DHT22;64400;44.762;37.698;2023-09-07T02:52:47;24.94;63.48
75782;DHT22;64400;44.762;37.698;2023-09-07T02:55:16;24.93;63.55
75782;DHT22;64400;44.762;37.698;2023-09-07T02:57:45;24.94;63.57
75782;DHT22;64400;44.762;37.698;2023-09-07T03:00:15;24.92;63.60
75782;DHT22;64400;44.762;37.698;2023-09-07T03:02:46;24.91;63.54
75782;DHT22;64400;44.762;37.698;2023-09-07T03:05:18;24.89;63.52
75782;DHT22;64400;44.762;37.698;2023-09-07T03:07:50;24.90;63.55
75782;DHT22;64400;44.762;37.698;2023-09-07T03:10:19;24.89;63.50
75782;DHT22;64400;44.762;37.698;2023-09-07T03:12:50;24.88;63.51
75782;DHT22;64400;44.762;37.698;2023-09-07T03:15:21;24.87;63.54
75782;DHT22;64400;44.762;37.698;2023-09-07T03:17:51;24.87;63.53
75782;DHT22;64400;44.762;37.698;2023-09-07T03:20:20;24.85;63.54
75782;DHT22;64400;44.762;37.698;2023-09-07T03:22:51;24.85;63.55
75782;DHT22;64400;44.762;37.698;2023-09-07T03:25:20;24.84;63.53
75782;DHT22;64400;44.762;37.698;2023-09-07T03:27:49;24.83;63.54
75782;DHT22;64400;44.762;37.698;2023-09-07T03:30:20;24.84;63.47
75782;DHT22;64400;44.762;37.698;2023-09-07T03:32:49;24.83;63.47
75782;DHT22;64400;44.762;37.698;2023-09-07T03:35:18;24.83;63.40
75782;DHT22;64400;44.762;37.698;2023-09-07T03:37:48;24.83;63.42
75782;DHT22;64400;44.762;37.698;2023-09-07T03:40:17;24.83;63.34
75782;DHT22;64400;44.762;37.698;2023-09-07T03:42:46;24.82;63.34
75782;DHT22;64400;44.762;37.698;2023-09-07T03:45:15;24.80;63.34
75782;DHT22;64400;44.762;37.698;2023-09-07T03:47:45;24.83;63.37
75782;DHT22;64400;44.762;37.698;2023-09-07T03:50:18;24.80;62.82
75782;DHT22;64400;44.762;37.698;2023-09-07T03:52:50;24.80;62.44
75782;DHT22;64400;44.762;37.698;2023-09-07T03:55:20;24.77;62.05
75782;DHT22;64400;44.762;37.698;2023-09-07T03:57:50;24.77;61.82
75782;DHT22;64400;44.762;37.698;2023-09-07T04:00:23;24.75;61.85
75782;DHT22;64400;44.762;37.698;2023-09-07T04:02:53;24.75;61.79
75782;DHT22;64400;44.762;37.698;2023-09-07T04:05:22;24.76;61.60
75782;DHT22;64400;44.762;37.698;2023-09-07T04:07:51;24.74;61.34
75782;DHT22;64400;44.762;37.698;2023-09-07T04:10:20;24.73;61.65
75782;DHT22;64400;44.762;37.698;2023-09-07T04:12:49;24.71;61.23
75782;DHT22;64400;44.762;37.698;2023-09-07T04:15:19;24.71;61.33
75782;DHT22;64400;44.762;37.698;2023-09-07T04:17:50;24.72;61.29
75782;DHT22;64400;44.762;37.698;2023-09-07T04:20:19;24.73;61.20
75782;DHT22;64400;44.762;37.698;2023-09-07T04:22:49;24.72;61.07
75782;DHT22;64400;44.762;37.698;2023-09-07T04:25:19;24.72;61.20
75782;DHT22;64400;44.762;37.698;2023-09-07T04:27:49;24.71;61.38
75782;DHT22;64400;44.762;37.698;2023-09-07T04:30:18;24.72;61.40
75782;DHT22;64400;44.762;37.698;2023-09-07T04:32:48;24.74;61.20
75782;DHT22;64400;44.762;37.698;2023-09-07T04:35:18;24.74;60.96
75782;DHT22;64400;44.762;37.698;2023-09-07T04:37:47;24.75;61.17
75782;DHT22;64400;44.762;37.698;2023-09-07T04:40:17;24.76;61.18
75782;DHT22;64400;44.762;37.698;2023-09-07T04:42:46;24.76;61.20
75782;DHT22;64400;44.762;37.698;2023-09-07T04:45:15;24.78;60.58
75782;DHT22;64400;44.762;37.698;2023-09-07T04:47:45;24.80;60.73
75782;DHT22;64400;44.762;37.698;2023-09-07T04:50:15;24.83;60.96
75782;DHT22;64400;44.762;37.698;2023-09-07T04:52:45;24.86;60.73
75782;DHT22;64400;44.762;37.698;2023-09-07T04:55:14;24.88;60.49
75782;DHT22;64400;44.762;37.698;2023-09-07T04:57:45;24.90;60.41
75782;DHT22;64400;44.762;37.698;2023-09-07T05:00:14;24.92;60.60
75782;DHT22;64400;44.762;37.698;2023-09-07T05:02:45;24.95;60.31
75782;DHT22;64400;44.762;37.698;2023-09-07T05:05:17;25.00;60.27
75782;DHT22;64400;44.762;37.698;2023-09-07T05:07:46;25.06;60.22
75782;DHT22;64400;44.762;37.698;2023-09-07T05:10:15;25.13;59.82
75782;DHT22;64400;44.762;37.698;2023-09-07T05:12:46;25.34;59.54
75782;DHT22;64400;44.762;37.698;2023-09-07T05:15:16;26.17;57.74
75782;DHT22;64400;44.762;37.698;2023-09-07T05:17:47;27.13;54.85
75782;DHT22;64400;44.762;37.698;2023-09-07T05:20:16;27.36;53.86
75782;DHT22;64400;44.762;37.698;2023-09-07T05:22:46;26.95;54.88
75782;DHT22;64400;44.762;37.698;2023-09-07T05:25:15;26.57;55.45
75782;DHT22;64400;44.762;37.698;2023-09-07T05:27:44;26.36;56.51
75782;DHT22;64400;44.762;37.698;2023-09-07T05:30:14;26.19;56.39
75782;DHT22;64400;44.762;37.698;2023-09-07T05:32:45;26.08;56.84
75782;DHT22;64400;44.762;37.698;2023-09-07T05:35:15;26.01;57.63
75782;DHT22;64400;44.762;37.698;2023-09-07T05:37:46;25.97;57.69
75782;DHT22;64400;44.762;37.698;2023-09-07T05:40:17;25.96;57.23
75782;DHT22;64400;44.762;37.698;2023-09-07T05:42:50;25.98;57.63
75782;DHT22;64400;44.762;37.698;2023-09-07T05:45:19;25.99;57.29
75782;DHT22;64400;44.762;37.698;2023-09-07T05:47:49;26.03;56.76
75782;DHT22;64400;44.762;37.698;2023-09-07T05:50:18;26.04;57.29
75782;DHT22;64400;44.762;37.698;2023-09-07T05:52:47;26.08;57.02
75782;DHT22;64400;44.762;37.698;2023-09-07T05:55:16;26.09;57.01
75782;DHT22;64400;44.762;37.698;2023-09-07T05:57:46;26.12;56.92
75782;DHT22;64400;44.762;37.698;2023-09-07T06:00:15;26.11;56.76
75782;DHT22;64400;44.762;37.698;2023-09-07T06:02:48;26.17;56.20
75782;DHT22;64400;44.762;37.698;2023-09-07T06:05:18;26.25;56.23
75782;DHT22;64400;44.762;37.698;2023-09-07T06:07:49;26.32;56.00
75782;DHT22;64400;44.762;37.698;2023-09-07T06:10:18;26.38;55.52
75782;DHT22;64400;44.762;37.698;2023-09-07T06:12:49;26.45;55.85
75782;DHT22;64400;44.762;37.698;2023-09-07T06:15:19;26.45;55.69
75782;DHT22;64400;44.762;37.698;2023-09-07T06:17:49;26.49;55.43
75782;DHT22;64400;44.762;37.698;2023-09-07T06:20:18;26.55;54.72
75782;DHT22;64400;44.762;37.698;2023-09-07T06:22:48;26.60;55.25
75782;DHT22;64400;44.762;37.698;2023-09-07T06:25:18;27.15;53.56
75782;DHT22;64400;44.762;37.698;2023-09-07T06:27:48;27.29;53.02
75782;DHT22;64400;44.762;37.698;2023-09-07T06:30:18;27.09;52.79
75782;DHT22;64400;44.762;37.698;2023-09-07T06:32:49;26.94;53.58
75782;DHT22;64400;44.762;37.698;2023-09-07T06:35:20;26.84;54.06
75782;DHT22;64400;44.762;37.698;2023-09-07T06:37:49;26.80;54.59
75782;DHT22;64400;44.762;37.698;2023-09-07T06:40:23;26.72;54.44
75782;DHT22;64400;44.762;37.698;2023-09-07T06:42:57;26.69;54.33
75782;DHT22;64400;44.762;37.698;2023-09-07T06:45:27;26.68;53.98
75782;DHT22;64400;44.762;37.698;2023-09-07T06:47:57;26.66;54.13
75782;DHT22;64400;44.762;37.698;2023-09-07T06:50:27;26.61;55.01
75782;DHT22;64400;44.762;37.698;2023-09-07T06:52:56;26.64;54.97
75782;DHT22;64400;44.762;37.698;2023-09-07T06:55:25;26.65;54.85
75782;DHT22;64400;44.762;37.698;2023-09-07T06:57:56;26.65;54.27
75782;DHT22;64400;44.762;37.698;2023-09-07T07:00:27;26.68;54.72
75782;DHT22;64400;44.762;37.698;2023-09-07T07:02:57;26.68;54.72
75782;DHT22;64400;44.762;37.698;2023-09-07T07:05:27;26.67;54.81
75782;DHT22;64400;44.762;37.698;2023-09-07T07:07:57;26.69;54.49
75782;DHT22;64400;44.762;37.698;2023-09-07T07:10:28;26.70;53.73
75782;DHT22;64400;44.762;37.698;2023-09-07T07:12:57;26.71;53.86
75782;DHT22;64400;44.762;37.698;2023-09-07T07:15:27;26.72;54.55
75782;DHT22;64400;44.762;37.698;2023-09-07T07:17:57;26.75;53.49
75782;DHT22;64400;44.762;37.698;2023-09-07T07:20:26;26.76;52.85
75782;DHT22;64400;44.762;37.698;2023-09-07T07:22:56;26.77;53.65
75782;DHT22;64400;44.762;37.698;2023-09-07T07:25:26;26.78;53.49
75782;DHT22;64400;44.762;37.698;2023-09-07T07:27:55;26.79;53.50
75782;DHT22;64400;44.762;37.698;2023-09-07T07:30:29;26.81;53.43
75782;DHT22;64400;44.762;37.698;2023-09-07T07:32:59;26.82;53.05
75782;DHT22;64400;44.762;37.698;2023-09-07T07:35:29;26.82;52.89
75782;DHT22;64400;44.762;37.698;2023-09-07T07:37:59;26.84;52.36
75782;DHT22;64400;44.762;37.698;2023-09-07T07:40:30;26.85;52.27
75782;DHT22;64400;44.762;37.698;2023-09-07T07:43:01;26.86;52.75
75782;DHT22;64400;44.762;37.698;2023-09-07T07:45:32;26.87;52.18
75782;DHT22;64400;44.762;37.698;2023-09-07T07:48:06;26.90;52.40
75782;DHT22;64400;44.762;37.698;2023-09-07T07:50:40;26.92;52.85
75782;DHT22;64400;44.762;37.698;2023-09-07T07:53:13;26.92;51.82
75782;DHT22;64400;44.762;37.698;2023-09-07T07:55:44;26.93;51.75
75782;DHT22;64400;44.762;37.698;2023-09-07T07:58:17;26.95;52.33
75782;DHT22;64400;44.762;37.698;2023-09-07T08:00:47;26.97;51.95
75782;DHT22;64400;44.762;37.698;2023-09-07T08:03:24;26.96;51.37
75782;DHT22;64400;44.762;37.698;2023-09-07T08:05:55;26.96;51.18
75782;DHT22;64400;44.762;37.698;2023-09-07T08:08:25;26.97;51.85
75782;DHT22;64400;44.762;37.698;2023-09-07T08:10:54;26.99;51.58
75782;DHT22;64400;44.762;37.698;2023-09-07T08:13:23;27.02;52.21
75782;DHT22;64400;44.762;37.698;2023-09-07T08:15:53;27.04;52.15
75782;DHT22;64400;44.762;37.698;2023-09-07T08:18:23;27.06;52.10
75782;DHT22;64400;44.762;37.698;2023-09-07T08:20:54;27.08;51.45
75782;DHT22;64400;44.762;37.698;2023-09-07T08:23:24;27.08;51.11
75782;DHT22;64400;44.762;37.698;2023-09-07T08:25:54;27.11;51.31
75782;DHT22;64400;44.762;37.698;2023-09-07T08:28:25;27.13;52.06
75782;DHT22;64400;44.762;37.698;2023-09-07T08:30:55;27.14;51.27
75782;DHT22;64400;44.762;37.698;2023-09-07T08:33:25;27.16;51.54
75782;DHT22;64400;44.762;37.698;2023-09-07T08:35:58;27.19;50.79
75782;DHT22;64400;44.762;37.698;2023-09-07T08:38:30;27.20;51.79
75782;DHT22;64400;44.762;37.698;2023-09-07T08:41:01;27.21;51.52
75782;DHT22;64400;44.762;37.698;2023-09-07T08:43:39;27.23;51.63
75782;DHT22;64400;44.762;37.698;2023-09-07T08:46:17;27.25;50.72
75782;DHT22;64400;44.762;37.698;2023-09-07T08:48:49;27.25;51.30
75782;DHT22;64400;44.762;37.698;2023-09-07T08:51:19;27.27;50.89
75782;DHT22;64400;44.762;37.698;2023-09-07T08:53:49;27.28;50.82
75782;DHT22;64400;44.762;37.698;2023-09-07T08:56:18;27.29;51.09
75782;DHT22;64400;44.762;37.698;2023-09-07T08:58:51;27.30;50.66
75782;DHT22;64400;44.762;37.698;2023-09-07T09:01:20;27.32;50.79
75782;DHT22;64400;44.762;37.698;2023-09-07T09:03:52;27.34;49.99
75782;DHT22;64400;44.762;37.698;2023-09-07T09:06:21;27.35;51.01
75782;DHT22;64400;44.762;37.698;2023-09-07T09:08:55;27.34;50.27
75782;DHT22;64400;44.762;37.698;2023-09-07T09:11:26;27.37;50.98
75782;DHT22;64400;44.762;37.698;2023-09-07T09:13:57;27.36;50.93
75782;DHT22;64400;44.762;37.698;2023-09-07T09:16:26;27.38;49.94
75782;DHT22;64400;44.762;37.698;2023-09-07T09:18:57;27.39;50.03
75782;DHT22;64400;44.762;37.698;2023-09-07T09:21:27;27.41;50.43
75782;DHT22;64400;44.762;37.698;2023-09-07T09:23:58;27.42;50.30
75782;DHT22;64400;44.762;37.698;2023-09-07T09:26:29;27.43;50.95
75782;DHT22;64400;44.762;37.698;2023-09-07T09:29:00;27.44;50.56
75782;DHT22;64400;44.762;37.698;2023-09-07T09:31:30;27.45;50.85
75782;DHT22;64400;44.762;37.698;2023-09-07T09:34:00;27.47;50.85
75782;DHT22;64400;44.762;37.698;2023-09-07T09:36:33;27.50;50.07
75782;DHT22;64400;44.762;37.698;2023-09-07T09:39:03;27.50;50.60
75782;DHT22;64400;44.762;37.698;2023-09-07T09:41:34;27.53;50.14
75782;DHT22;64400;44.762;37.698;2023-09-07T09:44:05;27.55;50.00
75782;DHT22;64400;44.762;37.698;2023-09-07T09:46:36;27.59;49.82
75782;DHT22;64400;44.762;37.698;2023-09-07T09:49:08;27.64;49.57
75782;DHT22;64400;44.762;37.698;2023-09-07T09:51:39;27.73;49.73
75782;DHT22;64400;44.762;37.698;2023-09-07T09:54:11;27.96;49.04
75782;DHT22;64400;44.762;37.698;2023-09-07T09:56:44;28.58;46.43
75782;DHT22;64400;44.762;37.698;2023-09-07T09:59:14;29.41;45.95
75782;DHT22;64400;44.762;37.698;2023-09-07T10:01:47;30.17;44.38
75782;DHT22;64400;44.762;37.698;2023-09-07T10:04:20;30.85;43.30
75782;DHT22;64400;44.762;37.698;2023-09-07T10:06:59;31.49;41.48
75782;DHT22;64400;44.762;37.698;2023-09-07T10:09:34;31.87;40.55
75782;DHT22;64400;44.762;37.698;2023-09-07T10:12:11;31.99;39.01
75782;DHT22;64400;44.762;37.698;2023-09-07T10:14:44;31.82;40.17
75782;DHT22;64400;44.762;37.698;2023-09-07T10:17:23;31.41;39.68
75782;DHT22;64400;44.762;37.698;2023-09-07T10:20:03;31.05;42.86
75782;DHT22;64400;44.762;37.698;2023-09-07T10:22:35;30.90;41.99
75782;DHT22;64400;44.762;37.698;2023-09-07T10:25:04;30.71;41.08
75782;DHT22;64400;44.762;37.698;2023-09-07T10:27:38;30.61;42.03
75782;DHT22;64400;44.762;37.698;2023-09-07T10:30:12;30.57;41.23
75782;DHT22;64400;44.762;37.698;2023-09-07T10:32:53;30.66;41.70
75782;DHT22;64400;44.762;37.698;2023-09-07T10:35:23;30.74;41.65
75782;DHT22;64400;44.762;37.698;2023-09-07T10:37:54;30.80;40.94
75782;DHT22;64400;44.762;37.698;2023-09-07T10:40:24;30.84;40.67
75782;DHT22;64400;44.762;37.698;2023-09-07T10:43:01;30.86;40.21
75782;DHT22;64400;44.762;37.698;2023-09-07T10:45:33;30.92;40.36
75782;DHT22;64400;44.762;37.698;2023-09-07T10:48:04;30.86;41.81
75782;DHT22;64400;44.762;37.698;2023-09-07T10:50:45;30.93;41.47
75782;DHT22;64400;44.762;37.698;2023-09-07T10:53:24;30.99;40.26
75782;DHT22;64400;44.762;37.698;2023-09-07T10:55:56;31.00;40.26
75782;DHT22;64400;44.762;37.698;2023-09-07T10:58:34;31.10;40.41
75782;DHT22;64400;44.762;37.698;2023-09-07T11:01:04;31.07;40.51
75782;DHT22;64400;44.762;37.698;2023-09-07T11:03:34;31.08;40.29
75782;DHT22;64400;44.762;37.698;2023-09-07T11:06:15;31.07;40.80
75782;DHT22;64400;44.762;37.698;2023-09-07T11:08:47;31.02;40.22
75782;DHT22;64400;44.762;37.698;2023-09-07T11:11:16;30.87;40.69
75782;DHT22;64400;44.762;37.698;2023-09-07T11:13:46;30.69;40.65
75782;DHT22;64400;44.762;37.698;2023-09-07T11:16:17;30.55;40.80
75782;DHT22;64400;44.762;37.698;2023-09-07T11:18:46;30.36;41.43
75782;DHT22;64400;44.762;37.698;2023-09-07T11:21:16;30.23;41.65
75782;DHT22;64400;44.762;37.698;2023-09-07T11:23:45;30.18;42.16
75782;DHT22;64400;44.762;37.698;2023-09-07T11:26:14;30.05;41.80
75782;DHT22;64400;44.762;37.698;2023-09-07T11:28:47;29.92;41.68
75782;DHT22;64400;44.762;37.698;2023-09-07T11:31:18;29.81;42.82
75782;DHT22;64400;44.762;37.698;2023-09-07T11:33:50;29.70;42.66
75782;DHT22;64400;44.762;37.698;2023-09-07T11:36:20;29.60;43.53
75782;DHT22;64400;44.762;37.698;2023-09-07T11:38:53;29.43;43.80
75782;DHT22;64400;44.762;37.698;2023-09-07T11:41:22;29.31;45.16
75782;DHT22;64400;44.762;37.698;2023-09-07T11:43:51;29.20;45.89
75782;DHT22;64400;44.762;37.698;2023-09-07T11:46:21;29.13;44.36
75782;DHT22;64400;44.762;37.698;2023-09-07T11:48:50;29.08;45.20
75782;DHT22;64400;44.762;37.698;2023-09-07T11:51:19;29.04;45.02
75782;DHT22;64400;44.762;37.698;2023-09-07T11:53:50;29.02;45.51
75782;DHT22;64400;44.762;37.698;2023-09-07T11:56:19;28.97;45.40
75782;DHT22;64400;44.762;37.698;2023-09-07T11:58:49;28.91;45.80
75782;DHT22;64400;44.762;37.698;2023-09-07T12:01:18;28.89;45.60
75782;DHT22;64400;44.762;37.698;2023-09-07T12:03:47;28.84;46.21
75782;DHT22;64400;44.762;37.698;2023-09-07T12:06:18;28.80;46.55
75782;DHT22;64400;44.762;37.698;2023-09-07T12:09:08;28.74;46.38
75782;DHT22;64400;44.762;37.698;2023-09-07T12:11:39;28.73;46.27
75782;DHT22;64400;44.762;37.698;2023-09-07T12:14:09;28.69;46.37
75782;DHT22;64400;44.762;37.698;2023-09-07T12:16:39;28.70;46.79
75782;DHT22;64400;44.762;37.698;2023-09-07T12:19:09;28.65;46.83
75782;DHT22;64400;44.762;37.698;2023-09-07T12:21:38;28.64;46.68
75782;DHT22;64400;44.762;37.698;2023-09-07T12:24:07;28.62;46.89
75782;DHT22;64400;44.762;37.698;2023-09-07T12:26:37;28.59;47.57
75782;DHT22;64400;44.762;37.698;2023-09-07T12:29:06;28.57;47.11
75782;DHT22;64400;44.762;37.698;2023-09-07T12:31:36;28.53;47.54
75782;DHT22;64400;44.762;37.698;2023-09-07T12:34:05;28.53;47.52
75782;DHT22;64400;44.762;37.698;2023-09-07T12:36:34;28.52;47.73
75782;DHT22;64400;44.762;37.698;2023-09-07T12:39:03;28.50;48.13
75782;DHT22;64400;44.762;37.698;2023-09-07T12:41:34;28.49;47.91
75782;DHT22;64400;44.762;37.698;2023-09-07T12:44:03;28.48;48.50
75782;DHT22;64400;44.762;37.698;2023-09-07T12:46:34;28.48;48.42
75782;DHT22;64400;44.762;37.698;2023-09-07T12:49:04;28.46;48.35
75782;DHT22;64400;44.762;37.698;2023-09-07T12:51:34;28.44;48.34
75782;DHT22;64400;44.762;37.698;2023-09-07T12:54:03;28.40;48.85
75782;DHT22;64400;44.762;37.698;2023-09-07T12:56:33;28.39;48.81
75782;DHT22;64400;44.762;37.698;2023-09-07T12:59:02;28.34;48.91
75782;DHT22;64400;44.762;37.698;2023-09-07T13:01:33;28.31;49.16
75782;DHT22;64400;44.762;37.698;2023-09-07T13:04:03;28.32;49.76
75782;DHT22;64400;44.762;37.698;2023-09-07T13:06:32;28.33;49.59
75782;DHT22;64400;44.762;37.698;2023-09-07T13:09:01;28.33;49.58
75782;DHT22;64400;44.762;37.698;2023-09-07T13:11:30;28.35;49.67
75782;DHT22;64400;44.762;37.698;2023-09-07T13:13:59;28.35;50.27
75782;DHT22;64400;44.762;37.698;2023-09-07T13:16:38;28.34;49.91
75782;DHT22;64400;44.762;37.698;2023-09-07T13:19:06;28.34;50.37
75782;DHT22;64400;44.762;37.698;2023-09-07T13:21:37;28.33;50.46
75782;DHT22;64400;44.762;37.698;2023-09-07T13:24:06;28.33;50.35
75782;DHT22;64400;44.762;37.698;2023-09-07T13:26:37;28.34;50.12
75782;DHT22;64400;44.762;37.698;2023-09-07T13:29:07;28.33;50.32
75782;DHT22;64400;44.762;37.698;2023-09-07T13:31:36;28.32;50.66
75782;DHT22;64400;44.762;37.698;2023-09-07T13:34:05;28.32;50.75
75782;DHT22;64400;44.762;37.698;2023-09-07T13:36:35;28.30;50.80
75782;DHT22;64400;44.762;37.698;2023-09-07T13:39:05;28.29;50.72
75782;DHT22;64400;44.762;37.698;2023-09-07T13:41:34;28.27;51.13
75782;DHT22;64400;44.762;37.698;2023-09-07T13:44:05;28.26;50.94
75782;DHT22;64400;44.762;37.698;2023-09-07T13:46:35;28.24;50.72
75782;DHT22;64400;44.762;37.698;2023-09-07T13:49:05;28.23;51.24
75782;DHT22;64400;44.762;37.698;2023-09-07T13:51:34;28.20;51.36
75782;DHT22;64400;44.762;37.698;2023-09-07T13:54:08;28.18;51.46
75782;DHT22;64400;44.762;37.698;2023-09-07T13:56:38;28.17;51.36
75782;DHT22;64400;44.762;37.698;2023-09-07T13:59:09;28.15;51.43
75782;DHT22;64400;44.762;37.698;2023-09-07T14:01:38;28.09;51.40
75782;DHT22;64400;44.762;37.698;2023-09-07T14:04:08;28.05;51.87
75782;DHT22;64400;44.762;37.698;2023-09-07T14:06:37;28.02;51.83
75782;DHT22;64400;44.762;37.698;2023-09-07T14:09:06;28.00;51.97
75782;DHT22;64400;44.762;37.698;2023-09-07T14:11:36;27.98;52.00
75782;DHT22;64400;44.762;37.698;2023-09-07T14:14:06;27.95;52.14
75782;DHT22;64400;44.762;37.698;2023-09-07T14:16:35;27.94;52.04
75782;DHT22;64400;44.762;37.698;2023-09-07T14:19:06;27.93;52.39
75782;DHT22;64400;44.762;37.698;2023-09-07T14:21:35;27.90;52.39
75782;DHT22;64400;44.762;37.698;2023-09-07T14:24:04;27.87;52.38
75782;DHT22;64400;44.762;37.698;2023-09-07T14:26:34;27.86;52.40
75782;DHT22;64400;44.762;37.698;2023-09-07T14:29:03;27.84;52.69
75782;DHT22;64400;44.762;37.698;2023-09-07T14:31:32;27.82;52.50
75782;DHT22;64400;44.762;37.698;2023-09-07T14:34:00;27.81;52.71
75782;DHT22;64400;44.762;37.698;2023-09-07T14:36:29;27.79;52.89
75782;DHT22;64400;44.762;37.698;2023-09-07T14:38:58;27.78;52.70
75782;DHT22;64400;44.762;37.698;2023-09-07T14:41:29;27.76;52.79
75782;DHT22;64400;44.762;37.698;2023-09-07T14:43:59;27.73;52.95
75782;DHT22;64400;44.762;37.698;2023-09-07T14:46:29;27.72;53.01
75782;DHT22;64400;44.762;37.698;2023-09-07T14:48:58;27.71;53.14
75782;DHT22;64400;44.762;37.698;2023-09-07T14:51:29;27.69;53.11
75782;DHT22;64400;44.762;37.698;2023-09-07T14:53:59;27.67;53.26
75782;DHT22;64400;44.762;37.698;2023-09-07T14:56:29;27.66;53.36
75782;DHT22;64400;44.762;37.698;2023-09-07T14:59:00;27.64;53.52
75782;DHT22;64400;44.762;37.698;2023-09-07T15:01:29;27.64;53.33
75782;DHT22;64400;44.762;37.698;2023-09-07T15:04:00;27.60;53.36
75782;DHT22;64400;44.762;37.698;2023-09-07T15:06:30;27.60;53.40
75782;DHT22;64400;44.762;37.698;2023-09-07T15:09:02;27.57;53.34
75782;DHT22;64400;44.762;37.698;2023-09-07T15:11:33;27.55;53.56
75782;DHT22;64400;44.762;37.698;2023-09-07T15:14:02;27.55;53.43
75782;DHT22;64400;44.762;37.698;2023-09-07T15:16:34;27.53;53.59
75782;DHT22;64400;44.762;37.698;2023-09-07T15:19:03;27.51;53.33
75782;DHT22;64400;44.762;37.698;2023-09-07T15:21:33;27.50;53.56
75782;DHT22;64400;44.762;37.698;2023-09-07T15:24:03;27.50;53.78
75782;DHT22;64400;44.762;37.698;2023-09-07T15:26:45;27.49;53.85
75782;DHT22;64400;44.762;37.698;2023-09-07T15:29:14;27.45;53.80
75782;DHT22;64400;44.762;37.698;2023-09-07T15:31:44;27.45;54.03
75782;DHT22;64400;44.762;37.698;2023-09-07T15:34:13;27.43;54.30
75782;DHT22;64400;44.762;37.698;2023-09-07T15:36:42;27.42;54.01